Time;durP1;ratioP1;P1;durP2;ratioP2;P2;SDS_P1;SDS_P2;PMS_P1;PMS_P2;Temp;Humidity;BMP_temperature;BMP_pressure;BME280_temperature;BME280_humidity;BME280_pressure;Samples;Min_cycle;Max_cycle;Signal;HPM_P1;HPM_P2
2022/09/15 00:00:15;;;;;;;2.00;1.90;;;;;;;;;;4932594;28;20353;-56
2022/09/15 00:02:41;;;;;;;1.80;1.70;;;;;;;;;;4930610;28;20576;-56
2022/09/15 00:05:07;;;;;;;2.03;1.93;;;;;;;;;;4941983;28;20890;-57
2022/09/15 00:07:33;;;;;;;2.10;2.00;;;;;;;;;;4933878;28;20707;-55
2022/09/15 00:09:59;;;;;;;1.70;1.70;;;;;;;;;;4928844;28;20758;-57
2022/09/15 00:12:25;;;;;;;1.60;1.60;;;;;;;;;;4899391;28;20231;-55
2022/09/15 00:14:51;;;;;;;1.90;1.80;;;;;;;;;;4946548;28;20318;-57
2022/09/15 00:17:17;;;;;;;1.90;1.80;;;;;;;;;;4959340;28;20215;-55
2022/09/15 00:19:43;;;;;;;1.60;1.60;;;;;;;;;;4929047;28;20308;-56
2022/09/15 00:22:09;;;;;;;2.00;1.90;;;;;;;;;;4919828;28;20794;-53
2022/09/15 00:24:35;;;;;;;2.00;1.90;;;;;;;;;;4925454;28;20734;-57
2022/09/15 00:27:01;;;;;;;1.83;1.73;;;;;;;;;;4933380;28;21545;-55
2022/09/15 00:29:27;;;;;;;1.80;1.70;;;;;;;;;;4922365;28;20239;-54
2022/09/15 00:31:53;;;;;;;1.60;1.60;;;;;;;;;;4910255;28;20373;-57
2022/09/15 00:34:19;;;;;;;1.70;1.70;;;;;;;;;;4922892;28;20283;-55
2022/09/15 00:36:45;;;;;;;1.90;1.80;;;;;;;;;;4918734;28;20330;-56
2022/09/15 00:39:11;;;;;;;2.00;1.90;;;;;;;;;;4913355;28;20236;-54
2022/09/15 00:41:38;;;;;;;2.00;1.90;;;;;;;;;;4917963;28;20322;-55
2022/09/15 00:44:05;;;;;;;1.60;1.60;;;;;;;;;;4921004;28;20744;-55
2022/09/15 00:46:32;;;;;;;1.90;1.80;;;;;;;;;;4922532;28;20285;-54
2022/09/15 00:49:19;;;;;;;1.70;1.70;;;;;;;;;;4921381;28;20754;-57
2022/09/15 00:51:48;;;;;;;1.90;1.80;;;;;;;;;;4924493;28;20713;-55
2022/09/15 00:54:18;;;;;;;1.90;1.80;;;;;;;;;;4923890;28;20218;-56
2022/09/15 00:56:44;;;;;;;1.90;1.80;;;;;;;;;;4908652;28;20856;-57
2022/09/15 00:59:11;;;;;;;1.80;1.70;;;;;;;;;;4909531;28;20790;-54
2022/09/15 01:01:37;;;;;;;1.90;1.80;;;;;;;;;;4912526;28;20223;-55
2022/09/15 01:04:03;;;;;;;1.90;1.80;;;;;;;;;;4897763;28;20302;-55
2022/09/15 01:06:32;;;;;;;2.00;1.90;;;;;;;;;;4924830;28;21676;-55
2022/09/15 01:09:17;;;;;;;1.70;1.70;;;;;;;;;;4915562;28;20225;-55
2022/09/15 01:11:43;;;;;;;1.80;1.70;;;;;;;;;;4896717;28;20218;-54
2022/09/15 01:14:09;;;;;;;2.10;2.00;;;;;;;;;;4917783;28;20269;-57
2022/09/15 01:16:39;;;;;;;1.70;1.70;;;;;;;;;;4910912;28;20226;-54
2022/09/15 01:19:05;;;;;;;1.90;1.80;;;;;;;;;;4909907;28;20677;-57
2022/09/15 01:22:03;;;;;;;1.70;1.70;;;;;;;;;;4926701;28;20215;-54
2022/09/15 01:24:41;;;;;;;1.87;1.77;;;;;;;;;;4869173;28;20269;-55
2022/09/15 01:27:10;;;;;;;2.00;1.90;;;;;;;;;;4921197;28;20243;-56
2022/09/15 01:29:53;;;;;;;2.47;2.37;;;;;;;;;;4924855;28;20231;-54
2022/09/15 01:35:21;;;;;;;2.10;2.00;;;;;;;;;;4924851;28;20606;-54
2022/09/15 01:38:06;;;;;;;2.10;2.00;;;;;;;;;;4933364;28;20264;-54
2022/09/15 01:40:35;;;;;;;1.40;1.40;;;;;;;;;;4930365;28;20613;-57
2022/09/15 01:43:00;;;;;;;1.90;1.80;;;;;;;;;;4931960;28;20277;-54
2022/09/15 01:45:28;;;;;;;2.00;1.90;;;;;;;;;;4908923;28;20242;-57
2022/09/15 01:47:54;;;;;;;1.50;1.50;;;;;;;;;;4913767;28;20325;-57
2022/09/15 01:50:22;;;;;;;1.60;1.60;;;;;;;;;;4922227;28;20226;-55
2022/09/15 01:52:48;;;;;;;1.50;1.50;;;;;;;;;;4909528;28;20298;-58
2022/09/15 01:55:16;;;;;;;1.63;1.63;;;;;;;;;;4930515;28;20312;-56
2022/09/15 01:57:42;;;;;;;1.60;1.60;;;;;;;;;;4926760;28;20226;-53
2022/09/15 02:00:08;;;;;;;2.00;1.90;;;;;;;;;;4922003;28;20256;-54
2022/09/15 02:02:39;;;;;;;1.50;1.50;;;;;;;;;;4927594;28;20231;-56
2022/09/15 02:05:10;;;;;;;1.80;1.70;;;;;;;;;;4914251;28;20853;-54
2022/09/15 02:07:56;;;;;;;1.90;1.80;;;;;;;;;;4911502;28;20742;-56
2022/09/15 02:10:22;;;;;;;1.57;1.57;;;;;;;;;;4929864;28;20337;-54
2022/09/15 02:12:50;;;;;;;2.10;2.00;;;;;;;;;;4933583;28;20688;-57
2022/09/15 02:15:27;;;;;;;1.60;1.60;;;;;;;;;;4929071;28;20536;-57
2022/09/15 02:17:54;;;;;;;1.40;1.40;;;;;;;;;;4931571;28;20326;-55
2022/09/15 02:20:33;;;;;;;1.77;1.70;;;;;;;;;;4932434;28;20715;-57
2022/09/15 02:23:00;;;;;;;2.00;1.90;;;;;;;;;;4935772;28;20749;-54
2022/09/15 02:25:28;;;;;;;2.00;1.90;;;;;;;;;;4937221;28;20311;-57
2022/09/15 02:27:55;;;;;;;1.50;1.50;;;;;;;;;;4927604;28;20266;-55
2022/09/15 02:30:21;;;;;;;2.13;2.03;;;;;;;;;;4930196;28;20264;-55
2022/09/15 02:32:53;;;;;;;1.47;1.47;;;;;;;;;;4939905;28;20752;-54
2022/09/15 02:35:18;;;;;;;1.60;1.60;;;;;;;;;;4932778;28;20708;-54
2022/09/15 02:37:45;;;;;;;1.50;1.50;;;;;;;;;;4932358;28;20234;-55
2022/09/15 02:40:11;;;;;;;1.90;1.80;;;;;;;;;;4927810;28;20552;-55
2022/09/15 02:42:38;;;;;;;1.70;1.70;;;;;;;;;;4940190;28;20773;-57
2022/09/15 02:45:04;;;;;;;1.90;1.80;;;;;;;;;;4937432;28;20411;-57
2022/09/15 02:47:30;;;;;;;1.40;1.40;;;;;;;;;;4940011;28;20235;-55
2022/09/15 02:49:56;;;;;;;1.63;1.63;;;;;;;;;;4933377;28;20274;-54
2022/09/15 02:52:22;;;;;;;1.53;1.53;;;;;;;;;;4941619;28;20222;-57
2022/09/15 02:54:49;;;;;;;1.60;1.60;;;;;;;;;;4943648;28;20365;-54
2022/09/15 02:57:15;;;;;;;1.90;1.80;;;;;;;;;;4925739;28;20230;-55
2022/09/15 03:02:26;;;;;;;1.80;1.70;;;;;;;;;;4925370;28;20310;-54
2022/09/15 03:04:52;;;;;;;1.60;1.60;;;;;;;;;;4931047;28;20807;-55
2022/09/15 03:07:18;;;;;;;1.50;1.50;;;;;;;;;;4930128;28;20241;-55
2022/09/15 03:09:44;;;;;;;1.60;1.60;;;;;;;;;;4938887;28;20249;-55
2022/09/15 03:12:10;;;;;;;1.70;1.70;;;;;;;;;;4950400;28;20611;-54
2022/09/15 03:14:37;;;;;;;1.50;1.50;;;;;;;;;;4929389;28;20215;-55
2022/09/15 03:17:03;;;;;;;1.80;1.70;;;;;;;;;;4924694;28;20226;-56
2022/09/15 03:19:29;;;;;;;1.60;1.60;;;;;;;;;;4917689;28;20702;-56
2022/09/15 03:21:55;;;;;;;1.90;1.80;;;;;;;;;;4922639;28;20222;-55
2022/09/15 03:24:21;;;;;;;1.50;1.50;;;;;;;;;;4918709;28;20228;-55
2022/09/15 03:26:47;;;;;;;1.50;1.50;;;;;;;;;;4920328;28;20235;-54
2022/09/15 03:29:13;;;;;;;1.40;1.40;;;;;;;;;;4924021;28;20220;-57
2022/09/15 03:31:39;;;;;;;1.40;1.40;;;;;;;;;;4919305;28;20242;-54
2022/09/15 03:34:05;;;;;;;1.63;1.63;;;;;;;;;;4922369;28;21905;-56
2022/09/15 03:36:31;;;;;;;1.30;1.30;;;;;;;;;;4915359;28;20784;-55
2022/09/15 03:38:57;;;;;;;1.50;1.50;;;;;;;;;;4919864;28;20719;-57
2022/09/15 03:41:23;;;;;;;1.40;1.40;;;;;;;;;;4920635;28;20286;-55
2022/09/15 03:43:49;;;;;;;1.50;1.50;;;;;;;;;;4937253;28;20243;-57
2022/09/15 03:46:16;;;;;;;1.40;1.40;;;;;;;;;;4927633;28;20572;-55
2022/09/15 03:48:42;;;;;;;1.40;1.40;;;;;;;;;;4898694;28;20708;-57
2022/09/15 03:51:09;;;;;;;1.50;1.50;;;;;;;;;;4909770;28;20226;-57
2022/09/15 03:53:36;;;;;;;1.40;1.40;;;;;;;;;;4890668;28;20587;-56
2022/09/15 03:56:13;;;;;;;1.40;1.40;;;;;;;;;;4906328;28;20864;-54
2022/09/15 03:58:39;;;;;;;1.40;1.40;;;;;;;;;;4928065;28;20271;-55
2022/09/15 04:01:05;;;;;;;1.10;1.10;;;;;;;;;;4934062;28;20660;-57
2022/09/15 04:03:31;;;;;;;1.10;1.10;;;;;;;;;;4920027;28;20224;-54
2022/09/15 04:05:57;;;;;;;1.40;1.40;;;;;;;;;;4928353;28;20269;-54
2022/09/15 04:08:23;;;;;;;1.30;1.30;;;;;;;;;;4924959;28;20215;-55
2022/09/15 04:10:49;;;;;;;1.40;1.40;;;;;;;;;;4929057;28;20224;-55
2022/09/15 04:13:16;;;;;;;1.50;1.50;;;;;;;;;;4921545;28;20244;-56
2022/09/15 04:15:43;;;;;;;1.27;1.27;;;;;;;;;;4916920;28;20247;-56
2022/09/15 04:18:09;;;;;;;0.90;0.90;;;;;;;;;;4920919;28;20235;-54
2022/09/15 04:20:37;;;;;;;1.00;1.00;;;;;;;;;;4920325;28;20234;-57
2022/09/15 04:23:03;;;;;;;0.93;0.93;;;;;;;;;;4932726;28;20937;-54
2022/09/15 04:25:29;;;;;;;0.90;0.90;;;;;;;;;;4921450;28;20227;-56
2022/09/15 04:27:58;;;;;;;0.90;0.90;;;;;;;;;;4926161;28;20222;-57
2022/09/15 04:30:24;;;;;;;0.90;0.90;;;;;;;;;;4933774;28;20300;-54
2022/09/15 04:32:51;;;;;;;0.90;0.90;;;;;;;;;;4916843;28;20227;-56
2022/09/15 04:35:17;;;;;;;0.90;0.90;;;;;;;;;;4920486;28;21312;-54
2022/09/15 04:37:43;;;;;;;0.90;0.90;;;;;;;;;;4930095;28;20219;-57
2022/09/15 04:40:10;;;;;;;1.10;1.10;;;;;;;;;;4931301;28;20774;-55
2022/09/15 04:42:36;;;;;;;0.80;0.80;;;;;;;;;;4924858;28;20946;-57
2022/09/15 04:45:02;;;;;;;0.90;0.90;;;;;;;;;;4934153;28;20578;-57
2022/09/15 04:47:28;;;;;;;0.90;0.90;;;;;;;;;;4930762;28;20227;-56
2022/09/15 04:49:54;;;;;;;0.90;0.90;;;;;;;;;;4925293;28;20222;-55
2022/09/15 04:52:20;;;;;;;1.10;1.10;;;;;;;;;;4922609;28;20224;-54
2022/09/15 04:54:46;;;;;;;1.10;1.10;;;;;;;;;;4920273;28;20732;-57
2022/09/15 04:57:12;;;;;;;1.30;1.30;;;;;;;;;;4912436;28;20317;-56
2022/09/15 04:59:38;;;;;;;1.60;1.60;;;;;;;;;;4928184;28;20752;-54
2022/09/15 05:02:04;;;;;;;1.90;1.80;;;;;;;;;;4914911;28;20227;-56
2022/09/15 05:04:30;;;;;;;1.90;1.80;;;;;;;;;;4919785;28;20239;-54
2022/09/15 05:06:56;;;;;;;1.30;1.30;;;;;;;;;;4913217;28;20231;-55
2022/09/15 05:09:22;;;;;;;1.87;1.77;;;;;;;;;;4920764;28;20338;-56
2022/09/15 05:11:48;;;;;;;1.50;1.50;;;;;;;;;;4929167;28;20431;-55
2022/09/15 05:14:14;;;;;;;1.43;1.43;;;;;;;;;;4940455;28;20247;-55
2022/09/15 05:16:40;;;;;;;1.90;1.80;;;;;;;;;;4931466;28;20220;-56
2022/09/15 05:19:06;;;;;;;1.67;1.67;;;;;;;;;;4932911;28;20247;-56
2022/09/15 05:21:32;;;;;;;1.50;1.50;;;;;;;;;;4936311;28;20309;-57
2022/09/15 05:23:58;;;;;;;1.40;1.40;;;;;;;;;;4939132;28;20259;-55
2022/09/15 05:26:25;;;;;;;1.70;1.70;;;;;;;;;;4939271;28;20358;-56
2022/09/15 05:28:51;;;;;;;1.40;1.40;;;;;;;;;;4949510;28;20227;-56
2022/09/15 05:31:18;;;;;;;1.80;1.70;;;;;;;;;;4951617;28;20680;-56
2022/09/15 05:33:45;;;;;;;1.50;1.50;;;;;;;;;;4948223;28;20306;-57
2022/09/15 05:36:13;;;;;;;1.57;1.57;;;;;;;;;;4940340;28;20240;-56
2022/09/15 05:38:39;;;;;;;1.30;1.30;;;;;;;;;;4937285;28;20216;-56
2022/09/15 05:41:06;;;;;;;1.67;1.67;;;;;;;;;;4943939;28;20229;-56
2022/09/15 05:43:32;;;;;;;1.63;1.63;;;;;;;;;;4943847;28;20254;-56
2022/09/15 05:45:58;;;;;;;1.50;1.50;;;;;;;;;;4945553;28;21319;-56
2022/09/15 05:48:24;;;;;;;1.60;1.60;;;;;;;;;;4951716;28;20217;-56
2022/09/15 05:50:51;;;;;;;1.63;1.63;;;;;;;;;;4937142;28;20299;-56
2022/09/15 05:53:17;;;;;;;1.50;1.50;;;;;;;;;;4944582;28;20422;-56
2022/09/15 05:55:43;;;;;;;1.40;1.40;;;;;;;;;;4946816;28;20227;-56
2022/09/15 05:58:09;;;;;;;1.63;1.60;;;;;;;;;;4944971;28;20230;-56
2022/09/15 06:00:35;;;;;;;1.57;1.57;;;;;;;;;;4939024;28;20973;-56
2022/09/15 06:03:01;;;;;;;1.50;1.50;;;;;;;;;;4949291;28;20214;-56
2022/09/15 06:05:27;;;;;;;1.53;1.53;;;;;;;;;;4955506;28;20797;-56
2022/09/15 06:07:53;;;;;;;1.87;1.77;;;;;;;;;;4963785;28;20309;-56
2022/09/15 06:10:21;;;;;;;1.60;1.60;;;;;;;;;;4947607;28;20216;-56
2022/09/15 06:12:48;;;;;;;1.30;1.30;;;;;;;;;;4954360;28;20230;-56
2022/09/15 06:15:14;;;;;;;1.40;1.40;;;;;;;;;;4948463;28;20222;-56
2022/09/15 06:17:40;;;;;;;1.70;1.70;;;;;;;;;;4956372;28;20235;-56
2022/09/15 06:20:06;;;;;;;1.70;1.70;;;;;;;;;;4947904;28;20636;-57
2022/09/15 06:22:32;;;;;;;1.30;1.30;;;;;;;;;;4944933;28;20253;-57
2022/09/15 06:24:58;;;;;;;1.40;1.40;;;;;;;;;;4946888;28;20313;-57
2022/09/15 06:27:25;;;;;;;1.40;1.40;;;;;;;;;;4951493;28;20341;-57
2022/09/15 06:29:51;;;;;;;1.50;1.50;;;;;;;;;;4951917;28;20223;-56
2022/09/15 06:32:17;;;;;;;1.60;1.60;;;;;;;;;;4953110;28;20608;-57
2022/09/15 06:34:43;;;;;;;1.30;1.30;;;;;;;;;;4948934;28;20755;-56
2022/09/15 06:37:10;;;;;;;1.73;1.70;;;;;;;;;;4949646;28;20230;-57
2022/09/15 06:39:36;;;;;;;1.30;1.30;;;;;;;;;;4957164;28;20256;-56
2022/09/15 06:42:02;;;;;;;1.40;1.40;;;;;;;;;;4950740;28;21153;-56
2022/09/15 06:44:28;;;;;;;1.17;1.17;;;;;;;;;;4950475;28;20531;-56
2022/09/15 06:46:54;;;;;;;1.40;1.40;;;;;;;;;;4947298;28;20231;-56
2022/09/15 06:49:20;;;;;;;1.50;1.50;;;;;;;;;;4958263;28;20233;-56
2022/09/15 06:51:46;;;;;;;1.20;1.20;;;;;;;;;;4955204;28;20232;-56
2022/09/15 06:54:14;;;;;;;1.30;1.30;;;;;;;;;;4957158;28;20237;-57
2022/09/15 06:56:40;;;;;;;1.10;1.10;;;;;;;;;;4952029;28;20734;-56
2022/09/15 06:59:06;;;;;;;1.10;1.10;;;;;;;;;;4944857;28;20235;-57
2022/09/15 07:01:32;;;;;;;1.10;1.10;;;;;;;;;;4940835;28;20228;-56
2022/09/15 07:03:59;;;;;;;1.40;1.40;;;;;;;;;;4947264;28;20330;-60
2022/09/15 07:06:28;;;;;;;1.40;1.40;;;;;;;;;;4942217;28;20261;-57
2022/09/15 07:08:55;;;;;;;1.20;1.20;;;;;;;;;;4940148;28;20222;-57
2022/09/15 07:11:21;;;;;;;1.10;1.10;;;;;;;;;;4942103;28;20227;-56
2022/09/15 07:13:50;;;;;;;1.37;1.37;;;;;;;;;;4935032;28;20228;-56
2022/09/15 07:16:17;;;;;;;1.70;1.70;;;;;;;;;;4946926;28;20599;-57
2022/09/15 07:18:43;;;;;;;1.90;1.80;;;;;;;;;;4946728;28;20857;-57
2022/09/15 07:21:13;;;;;;;1.83;1.73;;;;;;;;;;4950852;28;20220;-57
2022/09/15 07:23:39;;;;;;;2.00;1.90;;;;;;;;;;4951573;28;20239;-57
2022/09/15 07:26:18;;;;;;;1.80;1.70;;;;;;;;;;4952362;28;20246;-57
2022/09/15 07:28:45;;;;;;;1.90;1.80;;;;;;;;;;4959978;28;20593;-56
2022/09/15 07:31:12;;;;;;;2.00;1.90;;;;;;;;;;4966246;28;20695;-57
2022/09/15 07:33:38;;;;;;;1.70;1.70;;;;;;;;;;4952452;28;20233;-57
2022/09/15 07:36:04;;;;;;;2.10;2.00;;;;;;;;;;4958619;28;20281;-57
2022/09/15 07:38:30;;;;;;;1.70;1.70;;;;;;;;;;4956636;28;20605;-56
2022/09/15 07:41:02;;;;;;;1.80;1.70;;;;;;;;;;4938715;28;20264;-56
2022/09/15 07:43:27;;;;;;;2.00;1.90;;;;;;;;;;4953236;28;20255;-57
2022/09/15 07:45:56;;;;;;;1.60;1.60;;;;;;;;;;4950432;28;20223;-57
2022/09/15 07:48:22;;;;;;;1.63;1.63;;;;;;;;;;4962895;28;20225;-57
2022/09/15 07:50:48;;;;;;;1.60;1.60;;;;;;;;;;4951292;28;20224;-56
2022/09/15 07:53:14;;;;;;;1.60;1.60;;;;;;;;;;4954121;28;20691;-57
2022/09/15 07:55:40;;;;;;;1.60;1.60;;;;;;;;;;4959860;28;20641;-56
2022/09/15 07:58:06;;;;;;;1.60;1.60;;;;;;;;;;4959189;28;20695;-56
2022/09/15 08:00:32;;;;;;;2.10;2.00;;;;;;;;;;4961704;28;20606;-57
2022/09/15 08:02:58;;;;;;;1.90;1.80;;;;;;;;;;4950896;28;20774;-56
2022/09/15 08:05:26;;;;;;;1.83;1.73;;;;;;;;;;4944367;28;20262;-57
2022/09/15 08:07:53;;;;;;;2.00;1.90;;;;;;;;;;4956654;28;20277;-56
2022/09/15 08:10:19;;;;;;;2.10;2.00;;;;;;;;;;4959841;28;20269;-56
2022/09/15 08:12:45;;;;;;;1.60;1.60;;;;;;;;;;4965395;28;20222;-57
2022/09/15 08:15:11;;;;;;;2.20;2.10;;;;;;;;;;4961729;28;20234;-56
2022/09/15 08:17:36;;;;;;;2.07;1.97;;;;;;;;;;4960696;28;20249;-57
2022/09/15 08:20:03;;;;;;;1.90;1.80;;;;;;;;;;4964813;28;20225;-57
2022/09/15 08:22:29;;;;;;;2.03;1.93;;;;;;;;;;4954615;28;20767;-56
2022/09/15 08:24:54;;;;;;;2.10;2.00;;;;;;;;;;4956644;28;20231;-56
2022/09/15 08:27:20;;;;;;;2.00;1.90;;;;;;;;;;4958637;28;21134;-56
2022/09/15 08:29:46;;;;;;;1.50;1.50;;;;;;;;;;4955656;28;20215;-57
2022/09/15 08:32:12;;;;;;;1.50;1.50;;;;;;;;;;4960689;28;20227;-57
2022/09/15 08:34:38;;;;;;;1.47;1.47;;;;;;;;;;4958721;28;20230;-57
2022/09/15 08:37:04;;;;;;;1.75;1.67;;;;;;;;;;4966308;28;20688;-57
2022/09/15 08:39:30;;;;;;;1.98;1.88;;;;;;;;;;4957061;28;20229;-57
2022/09/15 08:41:56;;;;;;;1.40;1.40;;;;;;;;;;4948555;28;20270;-57
2022/09/15 08:44:37;;;;;;;1.30;1.30;;;;;;;;;;4925489;28;20223;-57
2022/09/15 08:47:12;;;;;;;2.60;2.50;;;;;;;;;;4961216;28;20677;-56
2022/09/15 08:49:41;;;;;;;3.40;3.30;;;;;;;;;;4943732;28;20226;-57
2022/09/15 08:52:09;;;;;;;3.60;3.50;;;;;;;;;;4961513;28;20246;-57
2022/09/15 08:54:35;;;;;;;1.65;1.65;;;;;;;;;;4961136;28;20238;-57
2022/09/15 08:57:01;;;;;;;1.90;1.80;;;;;;;;;;4959343;28;20310;-56
2022/09/15 08:59:30;;;;;;;1.20;1.20;;;;;;;;;;4929230;28;20311;-57
2022/09/15 09:01:59;;;;;;;1.08;1.08;;;;;;;;;;4953996;28;20227;-57
2022/09/15 09:07:27;;;;;;;0.90;0.90;;;;;;;;;;4947626;28;20354;-57
2022/09/15 09:10:15;;;;;;;1.00;1.00;;;;;;;;;;4955657;28;20239;-56
2022/09/15 09:12:53;;;;;;;1.00;1.00;;;;;;;;;;4929491;28;21181;-56
2022/09/15 09:15:38;;;;;;;1.00;1.00;;;;;;;;;;4960985;28;20362;-56
2022/09/15 09:18:07;;;;;;;1.05;1.05;;;;;;;;;;4951860;28;20430;-57
2022/09/15 09:20:38;;;;;;;1.00;1.00;;;;;;;;;;4933205;28;20703;-57
2022/09/15 09:23:05;;;;;;;1.00;1.00;;;;;;;;;;4958040;28;21115;-55
2022/09/15 09:25:31;;;;;;;1.00;1.00;;;;;;;;;;4945927;28;20314;-57
2022/09/15 09:27:57;;;;;;;1.02;1.02;;;;;;;;;;4953813;28;20944;-56
2022/09/15 09:30:24;;;;;;;0.98;0.98;;;;;;;;;;4949324;28;20314;-56
2022/09/15 09:32:52;;;;;;;0.90;0.90;;;;;;;;;;4962339;28;20233;-57
2022/09/15 09:35:18;;;;;;;1.10;1.10;;;;;;;;;;4948730;28;20592;-57
2022/09/15 09:37:44;;;;;;;1.13;1.13;;;;;;;;;;4957526;28;20231;-56
2022/09/15 09:40:14;;;;;;;1.20;1.20;;;;;;;;;;4950650;28;20535;-57
2022/09/15 09:42:40;;;;;;;1.20;1.20;;;;;;;;;;4930049;28;20227;-57
2022/09/15 09:45:06;;;;;;;1.20;1.20;;;;;;;;;;4925389;28;20282;-57
2022/09/15 09:47:33;;;;;;;1.20;1.20;;;;;;;;;;4938805;28;20360;-57
2022/09/15 09:49:59;;;;;;;1.10;1.10;;;;;;;;;;4940419;28;20257;-57
2022/09/15 09:52:33;;;;;;;1.20;1.20;;;;;;;;;;4951001;28;20622;-57
2022/09/15 09:55:17;;;;;;;1.10;1.10;;;;;;;;;;4948403;28;20658;-55
2022/09/15 09:57:43;;;;;;;1.30;1.30;;;;;;;;;;4950369;28;20234;-56
2022/09/15 10:00:32;;;;;;;1.30;1.30;;;;;;;;;;4950618;28;20257;-57
2022/09/15 10:03:00;;;;;;;1.25;1.25;;;;;;;;;;4926553;28;22010;-57
2022/09/15 10:05:27;;;;;;;1.38;1.38;;;;;;;;;;4923050;28;20246;-56
2022/09/15 10:07:53;;;;;;;1.25;1.25;;;;;;;;;;4937321;28;20223;-57
2022/09/15 10:10:20;;;;;;;1.20;1.20;;;;;;;;;;4935702;28;20231;-55
2022/09/15 10:12:46;;;;;;;1.20;1.20;;;;;;;;;;4956239;28;20227;-57
2022/09/15 10:15:22;;;;;;;1.20;1.20;;;;;;;;;;4930307;28;20226;-56
2022/09/15 10:17:48;;;;;;;1.40;1.40;;;;;;;;;;4960516;28;20328;-57
2022/09/15 10:20:23;;;;;;;1.30;1.30;;;;;;;;;;4956731;28;20224;-57
2022/09/15 10:22:49;;;;;;;1.20;1.20;;;;;;;;;;4949795;28;20311;-56
2022/09/15 10:25:20;;;;;;;1.20;1.20;;;;;;;;;;4957318;28;20708;-56
2022/09/15 10:28:08;;;;;;;1.45;1.45;;;;;;;;;;4946215;28;20257;-56
2022/09/15 10:30:34;;;;;;;1.58;1.58;;;;;;;;;;4954558;28;20234;-57
2022/09/15 10:33:18;;;;;;;1.30;1.30;;;;;;;;;;4964072;28;20712;-57
2022/09/15 10:35:44;;;;;;;1.30;1.30;;;;;;;;;;4950589;28;20289;-57
2022/09/15 10:38:11;;;;;;;1.30;1.30;;;;;;;;;;4950591;28;20213;-57
2022/09/15 10:40:45;;;;;;;1.40;1.40;;;;;;;;;;4946223;28;20721;-56
2022/09/15 10:43:20;;;;;;;1.30;1.30;;;;;;;;;;4962989;28;20221;-56
2022/09/15 10:45:47;;;;;;;1.30;1.30;;;;;;;;;;4946793;28;20231;-57
2022/09/15 10:48:25;;;;;;;1.20;1.20;;;;;;;;;;4961553;28;20218;-57
2022/09/15 10:50:53;;;;;;;1.10;1.10;;;;;;;;;;4967690;28;20223;-58
2022/09/15 10:53:24;;;;;;;1.20;1.20;;;;;;;;;;4930044;28;20215;-57
2022/09/15 10:55:53;;;;;;;1.35;1.35;;;;;;;;;;4957701;28;20215;-57
2022/09/15 10:58:29;;;;;;;1.30;1.30;;;;;;;;;;4955312;28;20227;-58
2022/09/15 11:01:14;;;;;;;1.27;1.27;;;;;;;;;;4962296;28;20238;-57
2022/09/15 11:03:40;;;;;;;1.48;1.48;;;;;;;;;;4962314;28;20623;-58
2022/09/15 11:06:06;;;;;;;1.30;1.30;;;;;;;;;;4956095;28;20235;-57
2022/09/15 11:08:39;;;;;;;1.48;1.48;;;;;;;;;;4956688;28;20305;-57
2022/09/15 11:11:05;;;;;;;1.40;1.40;;;;;;;;;;4957149;28;20785;-57
2022/09/15 11:13:31;;;;;;;1.40;1.40;;;;;;;;;;4956237;28;20612;-57
2022/09/15 11:16:33;;;;;;;1.45;1.45;;;;;;;;;;4956950;28;20311;-57
2022/09/15 11:19:31;;;;;;;1.40;1.40;;;;;;;;;;4950686;28;20275;-58
2022/09/15 11:21:59;;;;;;;1.30;1.30;;;;;;;;;;4919752;28;21919;-57
2022/09/15 11:24:26;;;;;;;1.40;1.40;;;;;;;;;;4956477;28;20227;-56
2022/09/15 11:26:57;;;;;;;1.30;1.30;;;;;;;;;;4932840;28;20241;-58
2022/09/15 11:29:27;;;;;;;1.33;1.33;;;;;;;;;;4923662;28;20219;-56
2022/09/15 11:31:58;;;;;;;1.30;1.30;;;;;;;;;;4928004;28;20229;-58
2022/09/15 11:34:32;;;;;;;1.30;1.30;;;;;;;;;;4951880;28;20224;-57
2022/09/15 11:37:06;;;;;;;1.35;1.35;;;;;;;;;;4936126;28;20238;-57
2022/09/15 11:39:43;;;;;;;1.10;1.10;;;;;;;;;;4945326;28;20223;-57
2022/09/15 11:42:13;;;;;;;1.30;1.30;;;;;;;;;;4951046;28;20223;-57
2022/09/15 11:44:40;;;;;;;1.40;1.40;;;;;;;;;;4947511;28;20244;-58
2022/09/15 11:47:14;;;;;;;1.40;1.40;;;;;;;;;;4943191;28;20222;-58
2022/09/15 11:49:41;;;;;;;1.40;1.40;;;;;;;;;;4942372;28;20224;-57
2022/09/15 11:52:26;;;;;;;1.40;1.40;;;;;;;;;;4952641;28;20690;-58
2022/09/15 11:54:52;;;;;;;1.40;1.40;;;;;;;;;;4954161;28;20223;-56
2022/09/15 11:57:21;;;;;;;1.40;1.40;;;;;;;;;;4950126;28;20827;-58
2022/09/15 11:59:57;;;;;;;1.30;1.30;;;;;;;;;;4928065;28;20215;-58
2022/09/15 12:02:25;;;;;;;1.30;1.30;;;;;;;;;;4936541;28;20249;-57
2022/09/15 12:04:56;;;;;;;1.50;1.50;;;;;;;;;;4953175;28;20749;-56
2022/09/15 12:07:24;;;;;;;1.33;1.33;;;;;;;;;;4952004;28;20783;-57
2022/09/15 12:09:50;;;;;;;1.48;1.48;;;;;;;;;;4946405;28;20257;-57
2022/09/15 12:12:16;;;;;;;1.42;1.42;;;;;;;;;;4945061;28;20255;-59
2022/09/15 12:14:46;;;;;;;1.50;1.50;;;;;;;;;;4939135;28;20227;-57
2022/09/15 12:17:17;;;;;;;1.60;1.60;;;;;;;;;;4947305;28;20273;-59
2022/09/15 12:19:43;;;;;;;1.42;1.42;;;;;;;;;;4952763;28;20240;-58
2022/09/15 12:22:12;;;;;;;1.42;1.42;;;;;;;;;;4945157;28;20593;-57
2022/09/15 12:24:44;;;;;;;1.40;1.40;;;;;;;;;;4937817;28;20654;-57
2022/09/15 12:27:15;;;;;;;1.30;1.30;;;;;;;;;;4938796;28;20236;-57
2022/09/15 12:29:47;;;;;;;1.50;1.50;;;;;;;;;;4944113;28;20258;-58
2022/09/15 12:32:23;;;;;;;1.50;1.50;;;;;;;;;;4934368;28;20227;-58
2022/09/15 12:34:55;;;;;;;1.50;1.50;;;;;;;;;;4940482;28;20241;-56
2022/09/15 12:37:22;;;;;;;1.48;1.48;;;;;;;;;;4942986;28;20326;-58
2022/09/15 12:39:48;;;;;;;1.50;1.50;;;;;;;;;;4945204;28;21396;-57
2022/09/15 12:42:17;;;;;;;1.40;1.40;;;;;;;;;;4930813;28;20235;-57
2022/09/15 12:44:50;;;;;;;1.42;1.42;;;;;;;;;;4947290;28;20239;-57
2022/09/15 12:47:20;;;;;;;1.40;1.40;;;;;;;;;;4946242;28;20238;-58
2022/09/15 12:49:46;;;;;;;1.40;1.40;;;;;;;;;;4927837;28;20635;-58
2022/09/15 12:52:12;;;;;;;1.40;1.40;;;;;;;;;;4941385;28;20230;-57
2022/09/15 12:54:39;;;;;;;1.40;1.40;;;;;;;;;;4947871;28;20219;-57
2022/09/15 12:57:06;;;;;;;1.40;1.40;;;;;;;;;;4947434;28;20227;-58
2022/09/15 12:59:32;;;;;;;1.40;1.40;;;;;;;;;;4951772;28;20228;-57
2022/09/15 13:01:58;;;;;;;1.42;1.42;;;;;;;;;;4954306;28;20641;-58
2022/09/15 13:04:44;;;;;;;1.50;1.50;;;;;;;;;;4945306;28;20321;-58
2022/09/15 13:07:17;;;;;;;1.30;1.30;;;;;;;;;;4954081;28;20231;-57
2022/09/15 13:09:46;;;;;;;1.40;1.40;;;;;;;;;;4946580;28;20223;-57
2022/09/15 13:12:12;;;;;;;1.40;1.40;;;;;;;;;;4937433;28;20726;-58
2022/09/15 13:14:40;;;;;;;1.40;1.40;;;;;;;;;;4946389;28;20257;-57
2022/09/15 13:17:07;;;;;;;1.45;1.45;;;;;;;;;;4952896;28;20354;-57
2022/09/15 13:19:43;;;;;;;1.40;1.40;;;;;;;;;;4921560;28;20609;-57
2022/09/15 13:22:09;;;;;;;1.40;1.40;;;;;;;;;;4938158;28;20222;-58
2022/09/15 13:24:53;;;;;;;1.50;1.50;;;;;;;;;;4933081;28;20303;-56
2022/09/15 13:27:21;;;;;;;1.48;1.48;;;;;;;;;;4932850;28;20624;-57
2022/09/15 13:30:07;;;;;;;1.40;1.40;;;;;;;;;;4944311;28;21104;-56
2022/09/15 13:32:33;;;;;;;2.10;2.00;;;;;;;;;;4937790;28;20231;-56
2022/09/15 13:35:05;;;;;;;1.75;1.70;;;;;;;;;;4931660;28;20235;-57
2022/09/15 13:37:41;;;;;;;1.98;1.88;;;;;;;;;;4945954;28;20261;-54
2022/09/15 13:40:26;;;;;;;1.90;1.80;;;;;;;;;;4928010;28;20232;-54
2022/09/15 13:43:10;;;;;;;1.80;1.70;;;;;;;;;;4926427;28;20664;-55
2022/09/15 13:45:39;;;;;;;1.90;1.80;;;;;;;;;;4937878;28;20235;-55
2022/09/15 13:48:23;;;;;;;1.65;1.65;;;;;;;;;;4940698;28;20233;-57
2022/09/15 13:50:54;;;;;;;1.63;1.63;;;;;;;;;;4920989;28;20780;-56
2022/09/15 13:53:41;;;;;;;1.80;1.70;;;;;;;;;;4916401;28;20587;-56
2022/09/15 13:56:07;;;;;;;1.70;1.70;;;;;;;;;;4927122;28;20227;-55
2022/09/15 13:58:33;;;;;;;1.85;1.75;;;;;;;;;;4914183;28;20227;-57
2022/09/15 14:01:00;;;;;;;2.20;2.10;;;;;;;;;;4924823;28;20331;-56
2022/09/15 14:03:28;;;;;;;1.85;1.75;;;;;;;;;;4936402;28;20227;-55
2022/09/15 14:05:54;;;;;;;2.40;2.30;;;;;;;;;;4911017;28;20284;-55
2022/09/15 14:08:27;;;;;;;1.70;1.70;;;;;;;;;;4938679;28;20771;-55
2022/09/15 14:11:00;;;;;;;1.90;1.80;;;;;;;;;;4941781;28;20227;-55
2022/09/15 14:13:26;;;;;;;1.50;1.50;;;;;;;;;;4928726;28;20230;-57
2022/09/15 14:16:07;;;;;;;1.80;1.70;;;;;;;;;;4936251;28;20227;-56
2022/09/15 14:18:42;;;;;;;1.50;1.50;;;;;;;;;;4937076;28;20255;-56
2022/09/15 14:21:15;;;;;;;1.57;1.57;;;;;;;;;;4942062;28;20328;-55
2022/09/15 14:23:45;;;;;;;2.10;2.00;;;;;;;;;;4949919;28;20227;-55
2022/09/15 14:26:11;;;;;;;2.20;2.10;;;;;;;;;;4941795;28;20712;-55
2022/09/15 14:28:37;;;;;;;2.10;2.00;;;;;;;;;;4951880;28;20314;-56
2022/09/15 14:31:03;;;;;;;2.10;2.00;;;;;;;;;;4947042;28;20226;-56
2022/09/15 14:33:32;;;;;;;1.90;1.80;;;;;;;;;;4922049;28;20224;-56
2022/09/15 14:35:58;;;;;;;1.90;1.80;;;;;;;;;;4952013;28;20326;-56
2022/09/15 14:38:26;;;;;;;2.77;2.67;;;;;;;;;;4928542;28;21691;-57
2022/09/15 14:40:53;;;;;;;1.90;1.80;;;;;;;;;;4944862;28;20635;-56
2022/09/15 14:43:34;;;;;;;2.00;1.90;;;;;;;;;;4961155;28;20227;-57
2022/09/15 14:46:20;;;;;;;2.17;2.07;;;;;;;;;;4955424;28;20728;-55
2022/09/15 14:48:46;;;;;;;1.90;1.80;;;;;;;;;;4940552;28;20584;-56
2022/09/15 14:51:19;;;;;;;2.00;1.90;;;;;;;;;;4933085;28;20226;-58
2022/09/15 14:53:45;;;;;;;1.87;1.77;;;;;;;;;;4926525;28;20560;-54
2022/09/15 14:56:13;;;;;;;1.90;1.80;;;;;;;;;;4942209;28;20231;-57
2022/09/15 14:58:41;;;;;;;1.80;1.70;;;;;;;;;;4930255;28;20586;-56
2022/09/15 15:01:12;;;;;;;1.90;1.80;;;;;;;;;;4947884;28;20619;-55